sensor_id;sensor_type;location;lat;lon;timestamp;P1;durP1;ratioP1;P2;durP2;ratioP2
44120;SDS011;29783;52.504;13.478;2022-12-18T10:16:58;39.42;;;19.73;;
44120;SDS011;29783;52.504;13.478;2022-12-18T10:26:25;48.42;;;21.50;;
44120;SDS011;29783;52.504;13.478;2022-12-18T14:58:00;24.63;;;13.43;;
44120;SDS011;29783;52.504;13.478;2022-12-18T16:42:49;26.10;;;13.75;;
44120;SDS011;29783;52.504;13.478;2022-12-18T16:56:30;28.85;;;15.18;;
44120;SDS011;29783;52.504;13.478;2022-12-18T16:58:59;28.05;;;13.15;;
44120;SDS011;29783;52.504;13.478;2022-12-18T17:01:27;25.60;;;13.82;;
44120;SDS011;29783;52.504;13.478;2022-12-18T17:03:58;30.83;;;15.38;;
44120;SDS011;29783;52.504;13.478;2022-12-18T17:06:29;29.73;;;14.60;;
44120;SDS011;29783;52.504;13.478;2022-12-18T17:09:00;29.05;;;15.70;;
44120;SDS011;29783;52.504;13.478;2022-12-18T17:11:29;26.67;;;16.30;;
44120;SDS011;29783;52.504;13.478;2022-12-18T17:14:05;27.60;;;15.70;;
44120;SDS011;29783;52.504;13.478;2022-12-18T17:16:32;28.88;;;14.65;;
44120;SDS011;29783;52.504;13.478;2022-12-18T17:18:58;32.60;;;15.57;;
44120;SDS011;29783;52.504;13.478;2022-12-18T17:21:24;34.47;;;16.17;;
44120;SDS011;29783;52.504;13.478;2022-12-18T17:23:50;24.88;;;14.45;;
44120;SDS011;29783;52.504;13.478;2022-12-18T17:26:16;30.27;;;15.95;;
44120;SDS011;29783;52.504;13.478;2022-12-18T17:28:41;35.53;;;16.90;;
44120;SDS011;29783;52.504;13.478;2022-12-18T17:31:11;23.25;;;14.85;;
44120;SDS011;29783;52.504;13.478;2022-12-18T17:33:42;29.02;;;15.88;;
44120;SDS011;29783;52.504;13.478;2022-12-18T17:36:08;29.55;;;16.85;;
44120;SDS011;29783;52.504;13.478;2022-12-18T17:38:35;32.33;;;17.08;;
44120;SDS011;29783;52.504;13.478;2022-12-18T17:41:07;37.28;;;17.75;;
44120;SDS011;29783;52.504;13.478;2022-12-18T17:43:35;37.17;;;17.67;;
44120;SDS011;29783;52.504;13.478;2022-12-18T17:46:03;31.48;;;17.63;;
44120;SDS011;29783;52.504;13.478;2022-12-18T17:48:30;37.67;;;18.58;;
44120;SDS011;29783;52.504;13.478;2022-12-18T17:51:02;45.65;;;19.55;;
44120;SDS011;29783;52.504;13.478;2022-12-18T17:53:37;32.47;;;18.45;;
44120;SDS011;29783;52.504;13.478;2022-12-18T17:56:13;35.83;;;18.17;;
44120;SDS011;29783;52.504;13.478;2022-12-18T17:58:40;35.47;;;18.50;;
44120;SDS011;29783;52.504;13.478;2022-12-18T18:01:06;39.45;;;20.55;;
44120;SDS011;29783;52.504;13.478;2022-12-18T18:10:53;41.20;;;20.25;;
44120;SDS011;29783;52.504;13.478;2022-12-18T18:13:48;36.53;;;19.77;;
44120;SDS011;29783;52.504;13.478;2022-12-18T18:16:34;39.90;;;20.80;;
44120;SDS011;29783;52.504;13.478;2022-12-18T18:19:03;43.70;;;21.27;;
44120;SDS011;29783;52.504;13.478;2022-12-18T18:21:33;39.00;;;20.65;;
44120;SDS011;29783;52.504;13.478;2022-12-18T18:24:09;36.58;;;19.75;;
44120;SDS011;29783;52.504;13.478;2022-12-18T18:30:38;40.55;;;20.92;;
44120;SDS011;29783;52.504;13.478;2022-12-18T18:33:10;43.25;;;22.67;;
44120;SDS011;29783;52.504;13.478;2022-12-18T18:35:42;41.35;;;22.00;;
44120;SDS011;29783;52.504;13.478;2022-12-18T18:41:41;43.65;;;20.90;;
44120;SDS011;29783;52.504;13.478;2022-12-18T18:44:11;47.15;;;21.75;;
44120;SDS011;29783;52.504;13.478;2022-12-18T18:46:37;45.30;;;22.50;;
44120;SDS011;29783;52.504;13.478;2022-12-18T18:49:04;45.33;;;21.88;;
44120;SDS011;29783;52.504;13.478;2022-12-18T18:51:39;43.63;;;21.45;;
44120;SDS011;29783;52.504;13.478;2022-12-18T18:54:08;44.97;;;24.08;;
44120;SDS011;29783;52.504;13.478;2022-12-18T18:56:50;34.85;;;20.60;;
44120;SDS011;29783;52.504;13.478;2022-12-18T18:59:25;38.40;;;20.60;;
44120;SDS011;29783;52.504;13.478;2022-12-18T19:01:58;43.05;;;23.10;;
44120;SDS011;29783;52.504;13.478;2022-12-18T19:07:56;41.20;;;21.48;;
44120;SDS011;29783;52.504;13.478;2022-12-18T19:10:29;51.38;;;24.60;;
44120;SDS011;29783;52.504;13.478;2022-12-18T19:13:09;39.80;;;22.70;;
44120;SDS011;29783;52.504;13.478;2022-12-18T19:15:53;41.83;;;22.60;;
44120;SDS011;29783;52.504;13.478;2022-12-18T19:18:33;57.67;;;23.63;;
44120;SDS011;29783;52.504;13.478;2022-12-18T19:21:03;45.08;;;23.58;;
44120;SDS011;29783;52.504;13.478;2022-12-18T19:23:41;49.70;;;24.02;;
44120;SDS011;29783;52.504;13.478;2022-12-18T19:26:24;44.70;;;24.42;;
44120;SDS011;29783;52.504;13.478;2022-12-18T19:35:57;53.13;;;22.77;;
44120;SDS011;29783;52.504;13.478;2022-12-18T19:38:28;47.72;;;23.92;;
44120;SDS011;29783;52.504;13.478;2022-12-18T19:41:00;42.85;;;22.30;;
44120;SDS011;29783;52.504;13.478;2022-12-18T19:43:29;48.15;;;24.00;;
44120;SDS011;29783;52.504;13.478;2022-12-18T19:45:56;43.85;;;23.70;;
44120;SDS011;29783;52.504;13.478;2022-12-18T19:48:31;47.35;;;22.73;;
44120;SDS011;29783;52.504;13.478;2022-12-18T19:51:06;37.78;;;19.58;;
44120;SDS011;29783;52.504;13.478;2022-12-18T19:53:45;48.70;;;22.75;;
44120;SDS011;29783;52.504;13.478;2022-12-18T19:56:18;45.50;;;22.92;;
44120;SDS011;29783;52.504;13.478;2022-12-18T19:58:54;42.45;;;22.50;;
44120;SDS011;29783;52.504;13.478;2022-12-18T20:09:01;48.50;;;21.88;;
44120;SDS011;29783;52.504;13.478;2022-12-18T20:11:38;50.78;;;23.88;;
44120;SDS011;29783;52.504;13.478;2022-12-18T20:16:53;47.30;;;21.63;;
44120;SDS011;29783;52.504;13.478;2022-12-18T20:19:37;48.33;;;23.25;;
44120;SDS011;29783;52.504;13.478;2022-12-18T20:22:03;25.85;;;14.63;;
44120;SDS011;29783;52.504;13.478;2022-12-18T20:24:30;43.08;;;20.92;;
44120;SDS011;29783;52.504;13.478;2022-12-18T20:27:17;38.72;;;21.25;;
44120;SDS011;29783;52.504;13.478;2022-12-18T20:36:38;36.40;;;21.65;;
44120;SDS011;29783;52.504;13.478;2022-12-18T20:39:08;50.40;;;21.27;;
44120;SDS011;29783;52.504;13.478;2022-12-18T20:42:06;25.08;;;14.75;;
44120;SDS011;29783;52.504;13.478;2022-12-18T20:48:44;36.95;;;19.92;;
44120;SDS011;29783;52.504;13.478;2022-12-18T20:51:20;41.35;;;20.98;;
44120;SDS011;29783;52.504;13.478;2022-12-18T20:53:53;49.22;;;22.50;;
44120;SDS011;29783;52.504;13.478;2022-12-18T20:56:37;41.13;;;22.25;;
44120;SDS011;29783;52.504;13.478;2022-12-18T20:59:05;36.95;;;20.05;;
44120;SDS011;29783;52.504;13.478;2022-12-18T21:04:49;47.25;;;20.55;;
44120;SDS011;29783;52.504;13.478;2022-12-18T21:07:21;41.83;;;20.15;;
44120;SDS011;29783;52.504;13.478;2022-12-18T21:14:02;42.90;;;20.00;;
44120;SDS011;29783;52.504;13.478;2022-12-18T22:01:04;37.22;;;17.17;;
44120;SDS011;29783;52.504;13.478;2022-12-18T22:21:32;41.47;;;16.75;;
44120;SDS011;29783;52.504;13.478;2022-12-18T22:52:42;33.42;;;16.40;;
44120;SDS011;29783;52.504;13.478;2022-12-18T22:59:25;37.88;;;16.90;;
